Wetterdaten: Freitag, 14.10.2011
Datum Zeit Temp. A. Feuchte A. Luftdruck Regen Wind Richtung Richtung Sonnenschein UV Solar Windben
14.10.2011 00:00 5,1 C 93 % 1032,2 hPa 0,0 mm 0,0 km/h (0 Bft) N 0 0 min 0 UV-I 0 W/m 0,0 km/h (0 Bft)
14.10.2011 00:10 5,0 C 93 % 1032,3 hPa 0,0 mm 0,0 km/h (0 Bft) N 0 0 min 0 UV-I 0 W/m 0,0 km/h (0 Bft)
14.10.2011 00:20 4,8 C 93 % 1032,4 hPa 0,0 mm 0,0 km/h (0 Bft) N 0 0 min 0 UV-I 0 W/m 0,0 km/h (0 Bft)
14.10.2011 00:30 4,8 C 93 % 1032,3 hPa 0,0 mm 0,0 km/h (0 Bft) N 0 0 min 0 UV-I 0 W/m 0,0 km/h (0 Bft)
14.10.2011 00:40 4,7 C 93 % 1032,4 hPa 0,0 mm 0,0 km/h (0 Bft) N 0 0 min 0 UV-I 0 W/m 0,0 km/h (0 Bft)
14.10.2011 00:50 4,5 C 93 % 1032,3 hPa 0,0 mm 0,0 km/h (0 Bft) N 0 0 min 0 UV-I 0 W/m 0,0 km/h (0 Bft)
14.10.2011 01:00 4,6 C 93 % 1032,2 hPa 0,0 mm 0,0 km/h (0 Bft) N 0 0 min 0 UV-I 0 W/m 0,0 km/h (0 Bft)
14.10.2011 01:10 4,5 C 93 % 1032,3 hPa 0,0 mm 0,0 km/h (0 Bft) W 270 0 min 0 UV-I 0 W/m 1,6 km/h (1 Bft)
14.10.2011 01:20 4,3 C 93 % 1032,1 hPa 0,0 mm 0,0 km/h (0 Bft) N 0 0 min 0 UV-I 0 W/m 0,0 km/h (0 Bft)
14.10.2011 01:30 4,3 C 93 % 1032,2 hPa 0,0 mm 0,0 km/h (0 Bft) N 0 0 min 0 UV-I 0 W/m 0,0 km/h (0 Bft)
14.10.2011 01:40 4,3 C 93 % 1032,1 hPa 0,0 mm 0,0 km/h (0 Bft) N 0 0 min 0 UV-I 0 W/m 0,0 km/h (0 Bft)
14.10.2011 01:50 4,4 C 93 % 1032,1 hPa 0,0 mm 0,0 km/h (0 Bft) N 0 0 min 0 UV-I 0 W/m 0,0 km/h (0 Bft)
14.10.2011 02:00 4,5 C 93 % 1032,2 hPa 0,0 mm 0,0 km/h (0 Bft) N 0 0 min 0 UV-I 0 W/m 0,0 km/h (0 Bft)
14.10.2011 02:10 4,3 C 93 % 1032,1 hPa 0,0 mm 0,0 km/h (0 Bft) N 0 0 min 0 UV-I 0 W/m 0,0 km/h (0 Bft)
14.10.2011 02:20 4,3 C 93 % 1032,2 hPa 0,0 mm 0,0 km/h (0 Bft) N 0 0 min 0 UV-I 0 W/m 0,0 km/h (0 Bft)
14.10.2011 02:30 4,2 C 93 % 1032,3 hPa 0,0 mm 0,0 km/h (0 Bft) N 0 0 min 0 UV-I 0 W/m 0,0 km/h (0 Bft)
14.10.2011 02:40 4,1 C 93 % 1032,3 hPa 0,0 mm 0,0 km/h (0 Bft) N 0 0 min 0 UV-I 0 W/m 0,0 km/h (0 Bft)
14.10.2011 02:50 4,1 C 93 % 1032,3 hPa 0,0 mm 0,0 km/h (0 Bft) N 0 0 min 0 UV-I 0 W/m 0,0 km/h (0 Bft)
14.10.2011 03:00 4,0 C 93 % 1032,3 hPa 0,0 mm 0,0 km/h (0 Bft) N 0 0 min 0 UV-I 0 W/m 0,0 km/h (0 Bft)
14.10.2011 03:10 3,9 C 93 % 1032,2 hPa 0,0 mm 0,0 km/h (0 Bft) N 0 0 min 0 UV-I 0 W/m 0,0 km/h (0 Bft)
14.10.2011 03:20 3,8 C 93 % 1032,2 hPa 0,0 mm 0,0 km/h (0 Bft) N 0 0 min 0 UV-I 0 W/m 0,0 km/h (0 Bft)
14.10.2011 03:30 3,7 C 93 % 1032,3 hPa 0,0 mm 0,0 km/h (0 Bft) N 0 0 min 0 UV-I 0 W/m 0,0 km/h (0 Bft)
14.10.2011 03:40 3,6 C 93 % 1032,2 hPa 0,0 mm 0,0 km/h (0 Bft) N 0 0 min 0 UV-I 0 W/m 0,0 km/h (0 Bft)
14.10.2011 03:50 3,5 C 93 % 1032,3 hPa 0,0 mm 0,0 km/h (0 Bft) N 0 0 min 0 UV-I 0 W/m 0,0 km/h (0 Bft)
14.10.2011 04:00 3,4 C 93 % 1032,2 hPa 0,0 mm 0,0 km/h (0 Bft) N 0 0 min 0 UV-I 0 W/m 0,0 km/h (0 Bft)
14.10.2011 04:10 3,3 C 93 % 1032,3 hPa 0,0 mm 0,0 km/h (0 Bft) N 0 0 min 0 UV-I 0 W/m 0,0 km/h (0 Bft)
14.10.2011 04:20 3,2 C 93 % 1032,3 hPa 0,0 mm 0,0 km/h (0 Bft) N 0 0 min 0 UV-I 0 W/m 0,0 km/h (0 Bft)
14.10.2011 04:30 3,1 C 93 % 1032,4 hPa 0,0 mm 0,0 km/h (0 Bft) N 0 0 min 0 UV-I 0 W/m 0,0 km/h (0 Bft)
14.10.2011 04:40 3,0 C 93 % 1032,5 hPa 0,0 mm 0,0 km/h (0 Bft) N 0 0 min 0 UV-I 0 W/m 0,0 km/h (0 Bft)
14.10.2011 04:50 2,9 C 93 % 1032,5 hPa 0,0 mm 0,0 km/h (0 Bft) N 0 0 min 0 UV-I 0 W/m 0,0 km/h (0 Bft)
14.10.2011 05:00 2,8 C 93 % 1032,4 hPa 0,0 mm 0,0 km/h (0 Bft) N 0 0 min 0 UV-I 0 W/m 0,0 km/h (0 Bft)
14.10.2011 05:10 2,7 C 93 % 1032,5 hPa 0,0 mm 0,0 km/h (0 Bft) N 0 0 min 0 UV-I 0 W/m 0,0 km/h (0 Bft)
14.10.2011 05:20 2,7 C 93 % 1032,6 hPa 0,0 mm 0,0 km/h (0 Bft) N 0 0 min 0 UV-I 0 W/m 0,0 km/h (0 Bft)
14.10.2011 05:30 2,6 C 93 % 1032,5 hPa 0,0 mm 0,0 km/h (0 Bft) N 0 0 min 0 UV-I 0 W/m 0,0 km/h (0 Bft)
14.10.2011 05:40 2,5 C 93 % 1032,7 hPa 0,0 mm 0,0 km/h (0 Bft) N 0 0 min 0 UV-I 0 W/m 0,0 km/h (0 Bft)
14.10.2011 05:50 2,4 C 93 % 1032,7 hPa 0,0 mm 0,0 km/h (0 Bft) N 0 0 min 0 UV-I 0 W/m 0,0 km/h (0 Bft)
14.10.2011 06:00 2,3 C 93 % 1032,8 hPa 0,0 mm 0,0 km/h (0 Bft) N 0 0 min 0 UV-I 0 W/m 0,0 km/h (0 Bft)
14.10.2011 06:10 2,3 C 93 % 1032,8 hPa 0,0 mm 0,0 km/h (0 Bft) N 0 0 min 0 UV-I 0 W/m 0,0 km/h (0 Bft)
14.10.2011 06:20 2,2 C 93 % 1032,9 hPa 0,0 mm 0,0 km/h (0 Bft) N 0 0 min 0 UV-I 0 W/m 0,0 km/h (0 Bft)
14.10.2011 06:30 2,1 C 93 % 1032,9 hPa 0,0 mm 0,0 km/h (0 Bft) N 0 0 min 0 UV-I 0 W/m 0,0 km/h (0 Bft)
14.10.2011 06:40 2,1 C 93 % 1032,8 hPa 0,0 mm 0,0 km/h (0 Bft) N 0 0 min 0 UV-I 0 W/m 0,0 km/h (0 Bft)
14.10.2011 06:50 2,0 C 93 % 1032,9 hPa 0,0 mm 0,0 km/h (0 Bft) N 0 0 min 0 UV-I 0 W/m 0,0 km/h (0 Bft)
14.10.2011 07:00 1,9 C 93 % 1032,9 hPa 0,0 mm 0,0 km/h (0 Bft) N 0 0 min 0 UV-I 0 W/m 0,0 km/h (0 Bft)
14.10.2011 07:10 1,9 C 93 % 1033,1 hPa 0,0 mm 0,0 km/h (0 Bft) N 0 0 min 0 UV-I 0 W/m 0,0 km/h (0 Bft)
14.10.2011 07:20 1,8 C 93 % 1033,1 hPa 0,0 mm 0,0 km/h (0 Bft) N 0 0 min 0 UV-I 0 W/m 0,0 km/h (0 Bft)
14.10.2011 07:30 1,8 C 93 % 1033,1 hPa 0,0 mm 0,0 km/h (0 Bft) N 0 0 min 0 UV-I 0 W/m 0,0 km/h (0 Bft)
14.10.2011 07:40 1,8 C 93 % 1033,2 hPa 0,0 mm 0,0 km/h (0 Bft) N 0 0 min 0 UV-I 0 W/m 0,0 km/h (0 Bft)
14.10.2011 07:50 1,7 C 93 % 1033,4 hPa 0,0 mm 0,0 km/h (0 Bft) N 0 0 min 0 UV-I 5 W/m 0,0 km/h (0 Bft)
14.10.2011 08:00 1,6 C 93 % 1033,6 hPa 0,3 mm 0,0 km/h (0 Bft) W 267 10 min 0 UV-I 11 W/m 0,0 km/h (0 Bft)
14.10.2011 08:10 1,6 C 93 % 1033,7 hPa 0,0 mm 0,0 km/h (0 Bft) N 0 0 min 0 UV-I 19 W/m 0,0 km/h (0 Bft)
14.10.2011 08:20 1,6 C 93 % 1033,8 hPa 0,0 mm 0,0 km/h (0 Bft) N 0 0 min 0 UV-I 23 W/m 0,0 km/h (0 Bft)
14.10.2011 08:30 1,6 C 93 % 1033,8 hPa 0,0 mm 0,0 km/h (0 Bft) N 0 0 min 0 UV-I 26 W/m 0,0 km/h (0 Bft)
14.10.2011 08:40 1,6 C 93 % 1033,8 hPa 0,0 mm 0,0 km/h (0 Bft) N 0 0 min 0 UV-I 30 W/m 0,0 km/h (0 Bft)
14.10.2011 08:50 1,7 C 93 % 1033,9 hPa 0,0 mm 0,0 km/h (0 Bft) N 0 10 min 0 UV-I 105 W/m 0,0 km/h (0 Bft)
14.10.2011 09:00 1,7 C 93 % 1034,0 hPa 0,0 mm 0,0 km/h (0 Bft) W 270 10 min 0 UV-I 160 W/m 1,6 km/h (1 Bft)
14.10.2011 09:10 2,7 C 94 % 1033,9 hPa 0,0 mm 0,0 km/h (0 Bft) N 0 10 min 1 UV-I 183 W/m 0,0 km/h (0 Bft)
14.10.2011 09:20 3,9 C 94 % 1034,0 hPa 0,0 mm 0,0 km/h (0 Bft) W 270 10 min 1 UV-I 206 W/m 1,6 km/h (1 Bft)
14.10.2011 09:30 4,4 C 94 % 1034,1 hPa 0,0 mm 0,0 km/h (0 Bft) W 270 10 min 1 UV-I 225 W/m 1,6 km/h (1 Bft)
14.10.2011 09:40 4,8 C 94 % 1034,1 hPa 0,0 mm 0,0 km/h (0 Bft) W 270 10 min 1 UV-I 243 W/m 1,6 km/h (1 Bft)
14.10.2011 09:50 5,2 C 94 % 1034,1 hPa 0,0 mm 0,0 km/h (0 Bft) N 0 10 min 1 UV-I 269 W/m 0,0 km/h (0 Bft)
14.10.2011 10:00 5,8 C 94 % 1034,2 hPa 0,0 mm 0,0 km/h (0 Bft) W 270 10 min 1 UV-I 285 W/m 1,6 km/h (1 Bft)
14.10.2011 10:10 6,3 C 93 % 1034,2 hPa 0,0 mm 0,0 km/h (0 Bft) W 270 10 min 1 UV-I 302 W/m 4,8 km/h (1 Bft)
14.10.2011 10:20 6,8 C 93 % 1034,1 hPa 0,0 mm 0,0 km/h (0 Bft) W 270 10 min 1 UV-I 322 W/m 4,8 km/h (1 Bft)
14.10.2011 10:30 7,5 C 92 % 1034,3 hPa 0,0 mm 1,6 km/h (1 Bft) W 270 10 min 1 UV-I 343 W/m 4,8 km/h (1 Bft)
14.10.2011 10:40 7,8 C 91 % 1034,3 hPa 0,0 mm 1,6 km/h (1 Bft) W 270 10 min 2 UV-I 366 W/m 6,4 km/h (2 Bft)
14.10.2011 10:50 8,3 C 89 % 1034,2 hPa 0,0 mm 1,6 km/h (1 Bft) W-NW 292 10 min 2 UV-I 385 W/m 6,4 km/h (2 Bft)
14.10.2011 11:00 8,7 C 86 % 1034,1 hPa 0,0 mm 1,6 km/h (1 Bft) W-NW 292 10 min 2 UV-I 413 W/m 6,4 km/h (2 Bft)
14.10.2011 11:10 9,1 C 85 % 1034,2 hPa 0,0 mm 1,6 km/h (1 Bft) W-NW 292 10 min 2 UV-I 439 W/m 6,4 km/h (2 Bft)
14.10.2011 11:20 9,5 C 81 % 1034,2 hPa 0,0 mm 1,6 km/h (1 Bft) W-NW 292 10 min 2 UV-I 454 W/m 8,0 km/h (2 Bft)
14.10.2011 11:30 9,7 C 77 % 1034,2 hPa 0,0 mm 1,6 km/h (1 Bft) N 360 10 min 2 UV-I 468 W/m 8,0 km/h (2 Bft)
14.10.2011 11:40 9,9 C 77 % 1034,1 hPa 0,0 mm 1,6 km/h (1 Bft) N 360 10 min 2 UV-I 487 W/m 6,4 km/h (2 Bft)
14.10.2011 11:50 10,3 C 74 % 1034,1 hPa 0,0 mm 3,2 km/h (1 Bft) N-NO 22 10 min 2 UV-I 501 W/m 9,7 km/h (2 Bft)
14.10.2011 12:00 10,6 C 73 % 1034,0 hPa 0,0 mm 3,2 km/h (1 Bft) NO 45 10 min 3 UV-I 513 W/m 9,7 km/h (2 Bft)
14.10.2011 12:10 11,1 C 71 % 1034,1 hPa 0,0 mm 3,2 km/h (1 Bft) NO 45 10 min 3 UV-I 520 W/m 11,3 km/h (2 Bft)
14.10.2011 12:20 10,9 C 70 % 1034,2 hPa 0,0 mm 4,8 km/h (1 Bft) O-NO 67 10 min 3 UV-I 526 W/m 16,1 km/h (3 Bft)
14.10.2011 12:30 11,1 C 71 % 1034,3 hPa 0,0 mm 3,2 km/h (1 Bft) O-NO 67 10 min 3 UV-I 526 W/m 9,7 km/h (2 Bft)
14.10.2011 12:40 11,3 C 70 % 1034,3 hPa 0,0 mm 4,8 km/h (1 Bft) O 90 10 min 3 UV-I 548 W/m 16,1 km/h (3 Bft)
14.10.2011 12:50 11,3 C 70 % 1034,4 hPa 0,0 mm 3,2 km/h (1 Bft) O 90 10 min 3 UV-I 547 W/m 14,5 km/h (3 Bft)
14.10.2011 13:00 11,4 C 69 % 1034,3 hPa 0,0 mm 3,2 km/h (1 Bft) O 90 10 min 3 UV-I 540 W/m 16,1 km/h (3 Bft)
14.10.2011 13:10 11,6 C 65 % 1034,3 hPa 0,0 mm 4,8 km/h (1 Bft) O-SO 112 10 min 3 UV-I 566 W/m 12,9 km/h (3 Bft)
14.10.2011 13:20 11,5 C 67 % 1034,2 hPa 0,0 mm 3,2 km/h (1 Bft) SO 135 10 min 3 UV-I 578 W/m 14,5 km/h (3 Bft)
14.10.2011 13:30 11,8 C 65 % 1034,1 hPa 0,0 mm 3,2 km/h (1 Bft) O-SO 112 10 min 3 UV-I 566 W/m 14,5 km/h (3 Bft)
14.10.2011 13:40 12,2 C 65 % 1034,1 hPa 0,0 mm 3,2 km/h (1 Bft) O-SO 112 10 min 3 UV-I 575 W/m 9,7 km/h (2 Bft)
14.10.2011 13:50 12,1 C 66 % 1034,0 hPa 0,0 mm 3,2 km/h (1 Bft) O-SO 112 10 min 3 UV-I 584 W/m 9,7 km/h (2 Bft)
14.10.2011 14:00 12,3 C 66 % 1034,1 hPa 0,0 mm 3,2 km/h (1 Bft) O 90 10 min 3 UV-I 512 W/m 11,3 km/h (2 Bft)
14.10.2011 14:10 12,1 C 66 % 1033,9 hPa 0,0 mm 3,2 km/h (1 Bft) O 90 10 min 3 UV-I 541 W/m 14,5 km/h (3 Bft)
14.10.2011 14:20 12,3 C 66 % 1034,0 hPa 0,0 mm 3,2 km/h (1 Bft) O-SO 112 10 min 2 UV-I 496 W/m 14,5 km/h (3 Bft)
14.10.2011 14:30 12,2 C 67 % 1033,8 hPa 0,0 mm 3,2 km/h (1 Bft) O-SO 112 10 min 2 UV-I 503 W/m 9,7 km/h (2 Bft)
14.10.2011 14:40 12,0 C 69 % 1033,8 hPa 0,0 mm 3,2 km/h (1 Bft) O 90 10 min 2 UV-I 446 W/m 16,1 km/h (3 Bft)
14.10.2011 14:50 12,0 C 65 % 1033,8 hPa 0,0 mm 3,2 km/h (1 Bft) O 90 10 min 2 UV-I 482 W/m 16,1 km/h (3 Bft)
14.10.2011 15:00 12,1 C 66 % 1033,8 hPa 0,0 mm 3,2 km/h (1 Bft) O-SO 112 10 min 2 UV-I 461 W/m 11,3 km/h (2 Bft)
14.10.2011 15:10 12,0 C 68 % 1033,7 hPa 0,0 mm 4,8 km/h (1 Bft) SO 135 10 min 2 UV-I 390 W/m 14,5 km/h (3 Bft)
14.10.2011 15:20 11,8 C 68 % 1033,7 hPa 0,0 mm 3,2 km/h (1 Bft) O-SO 112 10 min 2 UV-I 392 W/m 12,9 km/h (3 Bft)
14.10.2011 15:30 11,6 C 65 % 1033,7 hPa 0,0 mm 4,8 km/h (1 Bft) O-SO 112 10 min 2 UV-I 338 W/m 17,7 km/h (3 Bft)
14.10.2011 15:40 11,4 C 67 % 1033,7 hPa 0,0 mm 3,2 km/h (1 Bft) O-SO 112 10 min 1 UV-I 308 W/m 11,3 km/h (2 Bft)
14.10.2011 15:50 11,3 C 64 % 1033,7 hPa 0,0 mm 3,2 km/h (1 Bft) O-SO 112 10 min 1 UV-I 278 W/m 14,5 km/h (3 Bft)
14.10.2011 16:00 11,2 C 64 % 1033,6 hPa 0,0 mm 3,2 km/h (1 Bft) O-SO 112 10 min 1 UV-I 250 W/m 12,9 km/h (3 Bft)
14.10.2011 16:10 11,1 C 67 % 1033,6 hPa 0,0 mm 3,2 km/h (1 Bft) SO 135 10 min 1 UV-I 244 W/m 9,7 km/h (2 Bft)
14.10.2011 16:20 11,1 C 68 % 1033,7 hPa 0,0 mm 3,2 km/h (1 Bft) SO 135 10 min 1 UV-I 248 W/m 8,0 km/h (2 Bft)
14.10.2011 16:30 10,8 C 70 % 1033,6 hPa 0,0 mm 3,2 km/h (1 Bft) SO 135 10 min 1 UV-I 225 W/m 9,7 km/h (2 Bft)
14.10.2011 16:40 10,8 C 71 % 1033,7 hPa 0,0 mm 3,2 km/h (1 Bft) SO 135 10 min 1 UV-I 288 W/m 8,0 km/h (2 Bft)
14.10.2011 16:50 11,1 C 70 % 1033,5 hPa 0,0 mm 3,2 km/h (1 Bft) SO 135 10 min 1 UV-I 295 W/m 9,7 km/h (2 Bft)
14.10.2011 17:00 11,2 C 70 % 1033,6 hPa 0,0 mm 3,2 km/h (1 Bft) O-SO 112 10 min 1 UV-I 236 W/m 9,7 km/h (2 Bft)
14.10.2011 17:10 11,1 C 71 % 1033,4 hPa 0,0 mm 1,6 km/h (1 Bft) O-SO 112 10 min 1 UV-I 183 W/m 8,0 km/h (2 Bft)
14.10.2011 17:20 10,9 C 71 % 1033,5 hPa 0,0 mm 1,6 km/h (1 Bft) O-SO 112 10 min 1 UV-I 178 W/m 6,4 km/h (2 Bft)
14.10.2011 17:30 10,6 C 72 % 1033,6 hPa 0,0 mm 1,6 km/h (1 Bft) O-SO 112 10 min 0 UV-I 142 W/m 8,0 km/h (2 Bft)
14.10.2011 17:40 10,2 C 71 % 1033,4 hPa 0,0 mm 1,6 km/h (1 Bft) O-SO 112 10 min 0 UV-I 144 W/m 9,7 km/h (2 Bft)
14.10.2011 17:50 10,0 C 70 % 1033,4 hPa 0,0 mm 1,6 km/h (1 Bft) O-SO 112 10 min 0 UV-I 123 W/m 8,0 km/h (2 Bft)
14.10.2011 18:00 9,8 C 72 % 1033,4 hPa 0,0 mm 1,6 km/h (1 Bft) O-SO 112 10 min 0 UV-I 56 W/m 8,0 km/h (2 Bft)
14.10.2011 18:10 9,5 C 73 % 1033,4 hPa 0,0 mm 1,6 km/h (1 Bft) O-SO 112 10 min 0 UV-I 39 W/m 6,4 km/h (2 Bft)
14.10.2011 18:20 9,1 C 75 % 1033,4 hPa 0,0 mm 0,0 km/h (0 Bft) O-SO 112 10 min 0 UV-I 26 W/m 6,4 km/h (2 Bft)
14.10.2011 18:30 8,6 C 75 % 1033,3 hPa 0,0 mm 0,0 km/h (0 Bft) O-SO 112 0 min 0 UV-I 14 W/m 4,8 km/h (1 Bft)
14.10.2011 18:40 8,4 C 76 % 1033,5 hPa 0,0 mm 0,0 km/h (0 Bft) O-SO 112 0 min 0 UV-I 5 W/m 4,8 km/h (1 Bft)
14.10.2011 18:50 8,1 C 77 % 1033,5 hPa 0,0 mm 0,0 km/h (0 Bft) O-SO 112 0 min 0 UV-I 0 W/m 3,2 km/h (1 Bft)
14.10.2011 19:00 7,7 C 79 % 1033,5 hPa 0,0 mm 0,0 km/h (0 Bft) O-SO 112 0 min 0 UV-I 0 W/m 3,2 km/h (1 Bft)
14.10.2011 19:10 7,3 C 80 % 1033,5 hPa 0,0 mm 0,0 km/h (0 Bft) O-SO 112 0 min 0 UV-I 0 W/m 1,6 km/h (1 Bft)
14.10.2011 19:20 7,2 C 81 % 1033,5 hPa 0,0 mm 0,0 km/h (0 Bft) O-SO 112 0 min 0 UV-I 0 W/m 3,2 km/h (1 Bft)
14.10.2011 19:30 7,0 C 81 % 1033,5 hPa 0,0 mm 0,0 km/h (0 Bft) O-SO 112 0 min 0 UV-I 0 W/m 4,8 km/h (1 Bft)
14.10.2011 19:40 6,8 C 83 % 1033,4 hPa 0,0 mm 0,0 km/h (0 Bft) O-SO 112 0 min 0 UV-I 0 W/m 4,8 km/h (1 Bft)
14.10.2011 19:50 6,7 C 83 % 1033,4 hPa 0,0 mm 0,0 km/h (0 Bft) O-SO 112 0 min 0 UV-I 0 W/m 3,2 km/h (1 Bft)
14.10.2011 20:00 6,7 C 83 % 1033,3 hPa 0,0 mm 0,0 km/h (0 Bft) N 0 0 min 0 UV-I 0 W/m 0,0 km/h (0 Bft)
14.10.2011 20:10 6,7 C 83 % 1033,3 hPa 0,0 mm 0,0 km/h (0 Bft) N 0 0 min 0 UV-I 0 W/m 0,0 km/h (0 Bft)
14.10.2011 20:20 6,6 C 84 % 1033,2 hPa 0,0 mm 0,0 km/h (0 Bft) N 0 0 min 0 UV-I 0 W/m 0,0 km/h (0 Bft)
14.10.2011 20:30 6,4 C 85 % 1033,3 hPa 0,0 mm 0,0 km/h (0 Bft) N 0 0 min 0 UV-I 0 W/m 0,0 km/h (0 Bft)
14.10.2011 20:40 6,2 C 86 % 1033,2 hPa 0,0 mm 0,0 km/h (0 Bft) N 0 0 min 0 UV-I 0 W/m 0,0 km/h (0 Bft)
14.10.2011 20:50 6,2 C 86 % 1033,3 hPa 0,0 mm 0,0 km/h (0 Bft) O-SO 112 0 min 0 UV-I 0 W/m 3,2 km/h (1 Bft)
14.10.2011 21:00 6,2 C 86 % 1033,3 hPa 0,0 mm 0,0 km/h (0 Bft) O-SO 112 0 min 0 UV-I 0 W/m 1,6 km/h (1 Bft)
14.10.2011 21:10 6,1 C 86 % 1033,1 hPa 0,0 mm 0,0 km/h (0 Bft) O-SO 112 0 min 0 UV-I 0 W/m 3,2 km/h (1 Bft)
14.10.2011 21:20 6,1 C 87 % 1033,2 hPa 0,0 mm 0,0 km/h (0 Bft) O-SO 112 0 min 0 UV-I 0 W/m 1,6 km/h (1 Bft)
14.10.2011 21:30 6,1 C 87 % 1033,1 hPa 0,0 mm 0,0 km/h (0 Bft) O-SO 112 0 min 0 UV-I 0 W/m 4,8 km/h (1 Bft)
14.10.2011 21:40 6,0 C 87 % 1033,1 hPa 0,0 mm 0,0 km/h (0 Bft) O-SO 112 0 min 0 UV-I 0 W/m 4,8 km/h (1 Bft)
14.10.2011 21:50 6,2 C 87 % 1033,1 hPa 0,0 mm 3,2 km/h (1 Bft) O-SO 112 0 min 0 UV-I 0 W/m 9,7 km/h (2 Bft)
14.10.2011 22:00 6,3 C 87 % 1033,1 hPa 0,0 mm 1,6 km/h (1 Bft) O-SO 112 0 min 0 UV-I 0 W/m 8,0 km/h (2 Bft)
14.10.2011 22:10 6,4 C 87 % 1033,1 hPa 0,0 mm 1,6 km/h (1 Bft) O-SO 112 0 min 0 UV-I 0 W/m 8,0 km/h (2 Bft)
14.10.2011 22:20 6,4 C 86 % 1033,2 hPa 0,0 mm 1,6 km/h (1 Bft) O-SO 112 0 min 0 UV-I 0 W/m 4,8 km/h (1 Bft)
14.10.2011 22:30 6,3 C 86 % 1033,3 hPa 0,0 mm 0,0 km/h (0 Bft) O-SO 112 0 min 0 UV-I 0 W/m 6,4 km/h (2 Bft)
14.10.2011 22:40 6,3 C 86 % 1033,4 hPa 0,0 mm 0,0 km/h (0 Bft) O-SO 112 0 min 0 UV-I 0 W/m 1,6 km/h (1 Bft)
14.10.2011 22:50 6,1 C 86 % 1033,4 hPa 0,0 mm 0,0 km/h (0 Bft) O-SO 112 0 min 0 UV-I 0 W/m 3,2 km/h (1 Bft)
14.10.2011 23:00 5,8 C 86 % 1033,5 hPa 0,0 mm 0,0 km/h (0 Bft) O-SO 112 0 min 0 UV-I 0 W/m 4,8 km/h (1 Bft)
14.10.2011 23:10 5,8 C 86 % 1033,4 hPa 0,0 mm 0,0 km/h (0 Bft) O-SO 112 0 min 0 UV-I 0 W/m 6,4 km/h (2 Bft)
14.10.2011 23:20 5,7 C 86 % 1033,3 hPa 0,0 mm 1,6 km/h (1 Bft) O-SO 112 0 min 0 UV-I 0 W/m 16,1 km/h (3 Bft)
14.10.2011 23:30 5,7 C 86 % 1033,2 hPa 0,0 mm 1,6 km/h (1 Bft) O-SO 112 0 min 0 UV-I 0 W/m 6,4 km/h (2 Bft)
14.10.2011 23:40 5,6 C 86 % 1033,0 hPa 0,0 mm 1,6 km/h (1 Bft) O-SO 112 0 min 0 UV-I 0 W/m 6,4 km/h (2 Bft)
14.10.2011 23:50 5,6 C 86 % 1032,9 hPa 0,0 mm 0,0 km/h (0 Bft) O-SO 112 0 min 0 UV-I 0 W/m 6,4 km/h (2 Bft)
_ Min-Zeit 08:00 15:50 01:20 - 00:00 - - - - - 00:00
Minimum _ 1,6 C 64 % 1032,1 hPa - 0,0 km/h (0 Bft) - - - - - 0,0 km/h (0 Bft)
_ Max-Zeit 13:50 09:10 12:50 08:00 12:20 - - 08:00 13:10 13:50 15:30
Maximum _ 12,4 C 94 % 1034,4 hPa 0,3 mm 4,8 km/h
O-NO (1 Bft)
- - 10 min 3 UV-I 584 W/m 17,7 km/h
O-SO (3 Bft)
Durchschnitt _ 6,6 C 84 % 1033,3 hPa #0,3 mm 1,0 km/h (0 Bft) O-SO - #9:50 h 2 UV-I 314 W/m 4,7 km/h (1 Bft)